Caliente, Nevada Weather observations

Data are for observation ending at time listed.
 Day   Time    Ave.   Ave.  Ave.  Vector   Max.   Stn.    Total    Solar   Ave.  
  of    of     Air    Rel.  Wind   Wind    Wind   Baro.  Precip.   Rad.    Soil  
Year   Day     Temp.  Hum.  Speed  Dir.    Gust   Pres.                    Temp. 
2015   (PST)    F      %     mph   deg.    mph     mb.     in.     W/m2     F   
------------------------------------------------------------------------------
  61    7:40   35.8    90    0.6   255      1.8   859.3    0.00      46    40.8
  61    7:50   35.9    90    0.8   274      2.1   859.3    0.00      81    40.8
  61    8:00   36.2    89    0.3   310      0.9   859.0    0.00     101    40.9
  61    8:10   36.7    89    0.6   207      2.1   859.0    0.00      97    40.9
  61    8:20   36.5    88    1.6   130      2.6   858.9    0.00      84    41.0
  61    8:30   36.9    88    0.4   214      1.8   859.1    0.00      84    41.1
  61    8:40   37.1    87    1.2   249      2.8   858.7    0.00      70    41.1
  61    8:50   37.3    86    1.2   248      3.9   858.2    0.00     134    41.2
  61    9:00   37.6    86    1.2   252      3.6   858.5    0.00      97    41.3
  61    9:10   37.7    85    3.0   250      6.3   858.5    0.00     130    41.4
  61    9:20   37.9    84    4.4   250      7.1   858.7    0.00     128    41.5
  61    9:30   38.1    84    4.3   253      6.6   858.6    0.00     152    41.5
  61    9:40   38.4    83    4.3   250      6.8   858.6    0.00     192    41.7
  61    9:50   38.9    82    3.0   252      6.6   858.9    0.00     105    41.8
  61   10:00   39.2    81    5.2   253      9.6   858.7    0.00     114    41.9
  61   10:10   39.4    80    4.8   256      8.1   858.4    0.00     172    42.0
  61   10:20   39.5    80    5.1   251      8.6   858.5    0.00     148    42.1
  61   10:30   39.7    78    4.9   251      8.9   858.3    0.00     178    42.2
  61   10:40   39.8    78    6.0   249      9.1   858.4    0.00     138    42.3
  61   10:50   39.9    80    6.5   250     10.7   858.1    0.00     135    42.4
  61   11:00   39.4    81    6.5   252     11.2   858.0    0.00     121    42.5
  61   11:10   39.2    80    8.0   246     13.1   858.2    0.00     153    42.5
  61   11:20   39.2    82    7.1   249     11.6   858.3    0.00     136    42.6
  61   11:30   38.8    82    6.6   247     10.4   858.3    0.00     109    42.6
  61   11:40   38.7    82    4.8   248      9.1   858.3    0.00     170    42.6
  61   11:50   38.7    82    6.7   249     10.5   858.2    0.00     120    42.7
  61   12:00   38.7    82    7.6   248     12.1   858.1    0.00      60    42.7
  61   12:10   38.1    83    8.8   252     13.6   858.1    0.01      26    42.7
  61   12:20   36.7    86    4.8   245     12.6   858.0    0.01      43    42.6
  61   12:30   36.8    85    1.8   182      8.8   857.9    0.01      89    42.5
  61   12:40   37.4    84    1.9   229      5.6   857.8    0.00     102    42.4
  61   12:50   38.0    83    5.6   249     10.8   857.7    0.00     215    42.4
  61   13:00   38.9    81    4.9   248     10.9   857.7    0.00     352    42.5
  61   13:10   39.4    80    6.0   249     12.3   857.5    0.00     284    42.5
  61   13:20   39.6    79    8.9   249     14.1   857.4    0.00     259    42.6
  61   13:30   40.2    77    7.8   248     12.4   857.3    0.00     435    42.7
  61   13:40   40.1    75    6.8   249     12.9   857.3    0.00     181    42.8
  61   13:50   40.1    75   10.2   248     17.4   857.4    0.00     169    42.9
  61   14:00   39.7    75    8.8   250     20.1   857.6    0.00     133    42.9
  61   14:10   38.7    80    6.7   248     14.4   857.7    0.00     236    43.0
  61   14:20   39.5    80    3.8   246     10.5   857.8    0.00     251    43.0
  61   14:30   39.7    78    7.6   251     14.0   858.0    0.00     235    43.1
  61   14:40   40.3    78    8.3   249     14.2   858.0    0.00     362    43.1
  61   14:50   40.9    75    8.5   249     13.4   858.1    0.00     317    43.3
  61   15:00   40.8    73    7.2   247     13.2   858.3    0.00     197    43.4
  61   15:10   40.5    73    5.0   248     10.6   858.4    0.00     165    43.6
  61   15:20   40.5    74    5.5   254     12.2   858.7    0.00      79    43.8
  61   15:30   37.3    82   10.7   265     20.9   859.1    0.02      16    43.9
  61   15:40   35.7    88    5.6   261     12.7   859.1    0.02     200    43.8
  61   15:50   37.1    87    2.8   213      5.4   859.0    0.00     182    43.7
  61   16:00   37.9    86    1.4   159      3.6   859.1    0.00     122    43.6
  61   16:10   38.4    83    3.8   248      7.4   859.1    0.00      63    43.6
  61   16:20   38.3    80    2.8   243      9.6   859.0    0.00      57    43.6
  61   16:30   38.3    81    2.5   252      4.5   859.1    0.00      60    43.6
  61   16:40   38.5    83    3.4   255      5.8   859.3    0.00      53    43.5
  61   16:50   38.5    84    3.6   258      7.0   859.2    0.00      40    43.4
  61   17:00   38.8    82    3.9   259      8.3   859.2    0.00      39    43.4
  61   17:10   38.9    81    5.0   256      7.5   859.3    0.00      35    43.3
  61   17:20   39.2    79    4.6   252      9.8   859.4    0.00      28    43.2
  61   17:30   39.2    76    3.5   248      8.0   859.6    0.00      16    43.1
  61   17:40   39.0    76    5.5   252      9.5   859.7    0.00       5    43.1
  61   17:50   38.6    77    4.7   250      7.4   859.9    0.00       2    43.0
  61   18:00   38.2    79    5.4   255      8.0   860.1    0.00       0    42.8
  61   18:10   37.8    81    6.0   245     10.4   860.3    0.00       0    42.7
  61   18:20   37.7    80    3.1   246      7.8   860.4    0.00       0    42.6
  61   18:30   37.7    80    1.1   244      4.5   860.6    0.00       0    42.4
  61   18:40   37.3    80    2.4   250      5.2   860.7    0.00       0    42.3
  61   18:50   37.4    78    3.1   248      8.6   860.9    0.00       0    42.2
  61   19:00   37.5    76    1.6   228      6.2   861.1    0.00       0    42.1
  61   19:10   37.7    74    2.7   247      6.6   861.2    0.00       0    42.0
  61   19:20   38.1    72    3.2   247      7.2   861.4    0.00       0    41.9
  61   19:30   38.2    72    2.2   237      7.1   861.5    0.00       1    41.8
  61   19:40   38.2    72    1.0   238      3.4   861.8    0.00       0    41.7
  61   19:50   38.2    73    3.2   247      9.5   862.0    0.00       0    41.6
  61   20:00   37.9    74    2.0   248      6.5   862.0    0.00       0    41.6
  61   20:10   37.9    74    3.9   254      6.1   862.0    0.00       0    41.6
  61   20:20   37.6    74    2.5   248      6.3   862.1    0.00       0    41.5
  61   20:30   37.3    76    1.1   208      6.8   862.2    0.00       0    41.5
  61   20:40   36.7    77    2.4   253      5.1   862.3    0.00       0    41.4
  61   20:50   36.2    79    0.9   306      3.1   862.5    0.00       0    41.3
  61   21:00   35.8    81    0.3    96      1.5   862.7    0.00       0    41.2
  61   21:10   35.7    82    0.8    56      2.3   863.0    0.00       0    41.1
  61   21:20   35.6    83    0.5    94      1.5   863.1    0.00       0    41.0
  61   21:30   35.8    82    1.0   237      2.4   863.2    0.00       0    41.0
  61   21:40   35.4    82    1.4   248      3.4   863.2    0.00       0    40.9
  61   21:50   34.4    84    0.4   144      2.2   863.3    0.00       0    40.9
  61   22:00   34.5    85    0.7   158      2.6   863.3    0.00       0    40.8
  61   22:10   34.5    85    1.0   342      2.9   863.4    0.00       0    40.7
  61   22:20   34.1    86    0.3   163      0.9   863.4    0.00       0    40.6
  61   22:30   34.2    86    0.0     0      0.0   863.4    0.00       0    40.6
  61   22:40   34.3    86    0.1   246      1.3   863.4    0.00       0    40.5
  61   22:50   34.2    87    0.8   244      1.7   863.5    0.00       0    40.4
  61   23:00   34.5    86    0.2   246      1.2   863.5    0.00       0    40.4
  61   23:10   34.7    86    0.4   130      1.5   863.5    0.00       0    40.3
  61   23:20   34.7    86    0.9    85      5.8   863.5    0.00       0    40.3
  61   23:30   34.8    86    0.4    10      2.0   863.4    0.00       0    40.3
  61   23:40   34.9    87    0.0     0      0.0   863.3    0.00       1    40.3
  61   23:50   34.9    87    0.2   104      1.2   863.3    0.00       0    40.3
  62    0:00   34.7    87    0.6   344      2.0   863.3    0.00       0    40.2
  62    0:10   34.7    88    0.0     0      0.0   863.3    0.00       0    40.2
  62    0:20   34.6    88    0.0     0      0.0   863.3    0.00       0    40.2
  62    0:30   34.4    88    0.1   209      0.9   863.3    0.00       0    40.2
  62    0:40   34.4    88    0.3   307      1.4   863.4    0.00       0    40.2
  62    0:50   34.2    88    0.3   224      1.8   863.3    0.00       0    40.1
  62    1:00   33.7    88    0.0   240      0.8   863.3    0.00       0    40.1
  62    1:10   33.1    89    0.1   223      0.8   863.2    0.00       1    40.1
  62    1:20   32.5    89    0.7   116      2.0   863.1    0.00       1    40.0
  62    1:30   32.3    90    0.9   342      2.2   863.1    0.00       1    39.9
  62    1:40   32.1    90    0.2   175      1.2   863.0    0.00       0    39.8
  62    1:50   31.6    90    0.4    60      2.6   863.0    0.00       1    39.7
  62    2:00   31.4    91    1.0    25      2.6   863.1    0.00       1    39.6
  62    2:10   31.1    91    0.2   158      1.1   863.1    0.00       1    39.5
  62    2:20   30.8    91    0.1   160      0.7   863.0    0.00       1    39.4
  62    2:30   30.4    91    0.2   158      0.7   862.9    0.00       0    39.3
  62    2:40   30.3    92    0.0     0      0.0   862.9    0.00       0    39.2
  62    2:50   30.0    92    0.0     0      0.0   862.9    0.00       0    39.1
  62    3:00   29.8    92    0.0   162      0.6   862.9    0.00       0    39.1
  62    3:10   29.6    92    0.5   352      1.7   862.9    0.00       0    38.9
  62    3:20   29.6    92    0.8    61      1.7   862.9    0.00       0    38.8
  62    3:30   29.9    93    0.4   142      1.5   862.8    0.00       0    38.7
  62    3:40   29.7    92    0.2   214      1.0   862.8    0.00       0    38.6
  62    3:50   29.5    92    0.5   302      1.8   862.7    0.00       0    38.5
  62    4:00   29.1    93    0.3   300      0.9   862.7    0.00       0    38.4
  62    4:10   29.0    93    0.2   300      0.9   862.7    0.00       0    38.4
  62    4:20   28.9    93    0.4   358      1.7   862.7    0.00       0    38.3
  62    4:30   28.7    93    0.8    42      2.8   862.6    0.00       0    38.2
  62    4:40   28.6    93    0.0     9      0.5   862.7    0.00       0    38.1
  62    4:50   28.3    93    0.2   334      1.3   862.6    0.00       0    38.0
  62    5:00   28.2    93    0.1    80      0.9   862.5    0.00       0    37.9
  62    5:10   28.1    93    0.2   238      1.3   862.5    0.00       0    37.9
  62    5:20   27.9    93    0.5   239      1.5   862.4    0.00       0    37.8
  62    5:30   27.9    93    0.1   239      0.9   862.4    0.00       0    37.7
  62    5:40   27.6    93    0.2   240      0.9   862.3    0.00       0    37.6
  62    5:50   27.4    93    0.1   334      1.6   862.2    0.00       1    37.5
  62    6:00   27.3    93    1.7    26      2.6   862.3    0.00       2    37.4
  62    6:10   27.4    94    1.6   110      2.6   862.5    0.00       3    37.4
  62    6:20   28.1    94    0.7   154      2.4   862.5    0.00       5    37.3
  62    6:30   28.9    94    0.6    75      4.4   862.6    0.00       9    37.2
  62    6:40   29.3    93    1.6    25      3.9   862.6    0.00      13    37.1
  62    6:50   29.3    93    1.2   325      3.1   862.5    0.00      12    37.1
  62    7:00   29.0    92    1.0   224      2.0   862.5    0.00      21    37.1
  62    7:10   29.6    92    0.8   252      2.0   862.5    0.00     111    37.0
  62    7:20   31.9    90    0.0     0      0.0   862.5    0.00     164    37.0
  62    7:30   33.8    88    0.0     0      0.0   862.5    0.00     190    37.0

Return to Caliente, Nevada graphs page.


Western Regional Climate Center,wrcc@dri.edu